createdAt,value
2018-12-13T00:00:10.385Z,17.60
2018-12-13T00:01:10.299Z,18.30
2018-12-13T00:02:10.224Z,20.10
2018-12-13T00:03:10.124Z,20.40
2018-12-13T00:04:10.035Z,20.10
2018-12-13T00:05:09.952Z,20.90
2018-12-13T00:06:09.861Z,19.90
2018-12-13T00:07:09.787Z,18.90
2018-12-13T00:08:09.700Z,19.40
2018-12-13T00:09:09.611Z,20.00
2018-12-13T00:10:09.525Z,20.20
2018-12-13T00:11:09.448Z,20.00
2018-12-13T00:12:09.350Z,20.30
2018-12-13T00:13:09.262Z,19.20
2018-12-13T00:14:09.188Z,21.90
2018-12-13T00:15:09.099Z,19.00
2018-12-13T00:16:09.011Z,20.90
2018-12-13T00:17:08.924Z,21.50
2018-12-13T00:18:08.842Z,21.90
2018-12-13T00:19:08.753Z,19.20
2018-12-13T00:20:08.663Z,21.60
2018-12-13T00:21:08.587Z,20.40
2018-12-13T00:22:08.503Z,20.40
2018-12-13T00:23:08.414Z,19.10
2018-12-13T00:24:08.327Z,18.90
2018-12-13T00:25:08.237Z,21.70
2018-12-13T00:26:08.150Z,20.30
2018-12-13T00:27:08.064Z,20.90
2018-12-13T00:28:07.987Z,21.30
2018-12-13T00:29:07.901Z,21.70
2018-12-13T00:30:07.826Z,20.80
2018-12-13T00:31:07.732Z,23.30
2018-12-13T00:32:07.638Z,21.10
2018-12-13T00:33:07.552Z,19.80
2018-12-13T00:34:07.465Z,22.30
2018-12-13T00:35:07.401Z,19.80
2018-12-13T00:36:07.302Z,21.90
2018-12-13T00:37:07.213Z,20.00
2018-12-13T00:38:07.127Z,24.60
2018-12-13T00:39:07.039Z,21.20
2018-12-13T00:40:06.954Z,21.50
2018-12-13T00:41:06.876Z,24.50
2018-12-13T00:42:06.789Z,19.80
2018-12-13T00:43:06.702Z,21.30
2018-12-13T00:44:06.614Z,21.70
2018-12-13T00:45:06.527Z,23.20
2018-12-13T00:46:06.440Z,20.40
2018-12-13T00:47:06.353Z,21.90
2018-12-13T00:48:06.280Z,20.20
2018-12-13T00:49:06.190Z,23.70
2018-12-13T00:50:06.103Z,23.90
2018-12-13T00:51:06.027Z,24.20
2018-12-13T00:52:05.929Z,23.70
2018-12-13T00:53:05.841Z,25.10
2018-12-13T00:54:05.753Z,23.80
2018-12-13T00:55:05.679Z,23.40
2018-12-13T00:56:05.591Z,22.90
2018-12-13T00:57:05.504Z,20.80
2018-12-13T00:58:05.432Z,21.40
2018-12-13T00:59:05.329Z,23.30
2018-12-13T01:00:05.241Z,25.10
2018-12-13T01:01:05.154Z,25.80
2018-12-13T01:02:05.073Z,25.90
2018-12-13T01:03:04.991Z,22.80
2018-12-13T01:04:04.910Z,24.30
2018-12-13T01:05:04.821Z,24.90
2018-12-13T01:06:04.732Z,26.40
2018-12-13T01:07:04.642Z,26.30
2018-12-13T01:08:04.556Z,25.60
2018-12-13T01:09:04.469Z,25.20
2018-12-13T01:10:04.393Z,24.30
2018-12-13T01:11:04.306Z,25.90
2018-12-13T01:12:04.218Z,26.00
2018-12-13T01:13:04.131Z,25.90
2018-12-13T01:14:04.043Z,26.90
2018-12-13T01:15:03.957Z,25.80
2018-12-13T01:16:03.883Z,25.20
2018-12-13T01:17:03.793Z,25.80
2018-12-13T01:18:03.708Z,29.20
2018-12-13T01:19:03.620Z,24.80
2018-12-13T01:20:03.532Z,24.50
2018-12-13T01:21:03.444Z,28.40
2018-12-13T01:22:03.360Z,30.10
2018-12-13T01:23:03.270Z,25.40
2018-12-13T01:24:03.195Z,25.20
2018-12-13T01:25:03.107Z,25.50
2018-12-13T01:26:03.020Z,27.80
2018-12-13T01:27:02.933Z,26.00
2018-12-13T01:28:02.846Z,24.70
2018-12-13T01:29:02.761Z,25.40
2018-12-13T01:30:02.675Z,26.60
2018-12-13T01:31:02.595Z,27.90
2018-12-13T01:32:02.509Z,27.20
2018-12-13T01:33:02.421Z,27.40
2018-12-13T01:34:02.335Z,25.30
2018-12-13T01:35:02.252Z,27.50
2018-12-13T01:36:02.171Z,26.90
2018-12-13T01:37:02.072Z,27.90
2018-12-13T01:38:01.984Z,32.30
2018-12-13T01:39:01.909Z,29.30
2018-12-13T01:40:01.826Z,32.30
2018-12-13T01:41:01.739Z,30.80
2018-12-13T01:42:01.647Z,31.90
2018-12-13T01:43:01.561Z,31.20
2018-12-13T01:44:01.472Z,28.20
2018-12-13T01:45:01.387Z,27.00
2018-12-13T01:46:01.310Z,32.20
2018-12-13T01:47:01.222Z,30.10
2018-12-13T01:48:01.139Z,35.20
2018-12-13T01:49:01.063Z,32.40
2018-12-13T01:50:00.961Z,30.80
2018-12-13T01:51:00.873Z,32.00
2018-12-13T01:52:00.789Z,32.20
2018-12-13T01:53:00.700Z,32.60
2018-12-13T01:54:00.623Z,36.20
2018-12-13T01:55:00.537Z,33.00
2018-12-13T01:56:00.448Z,33.20
2018-12-13T01:57:00.364Z,35.90
2018-12-13T01:58:01.196Z,32.00
2018-12-13T01:59:00.190Z,33.80
2018-12-13T02:00:00.099Z,34.30
2018-12-13T02:01:00.024Z,38.00
2018-12-13T02:01:59.939Z,39.10
2018-12-13T02:02:59.849Z,35.70
2018-12-13T02:03:59.763Z,35.20
2018-12-13T02:04:59.691Z,38.90
2018-12-13T02:05:59.589Z,37.50
2018-12-13T02:06:59.500Z,36.90
2018-12-13T02:07:59.414Z,40.20
2018-12-13T02:08:59.339Z,39.60
2018-12-13T02:09:59.250Z,35.60
2018-12-13T02:10:59.164Z,34.40
2018-12-13T02:11:59.079Z,36.00
2018-12-13T02:12:58.988Z,39.50
2018-12-13T02:13:58.900Z,39.10
2018-12-13T02:14:58.813Z,39.20
2018-12-13T02:15:58.739Z,40.00
2018-12-13T02:16:58.652Z,40.40
2018-12-13T02:17:58.564Z,41.70
2018-12-13T02:18:58.489Z,41.40
2018-12-13T02:19:58.389Z,38.30
2018-12-13T02:20:58.301Z,42.00
2018-12-13T02:21:58.214Z,40.20
2018-12-13T02:22:58.130Z,36.10
2018-12-13T02:23:58.051Z,40.10
2018-12-13T02:24:57.964Z,36.40
2018-12-13T02:25:57.878Z,39.20
2018-12-13T02:26:57.789Z,41.10
2018-12-13T02:27:57.704Z,39.20
2018-12-13T02:28:57.616Z,39.70
2018-12-13T02:29:57.541Z,39.30
2018-12-13T02:30:57.453Z,43.20
2018-12-13T02:31:57.370Z,40.10
2018-12-13T02:32:57.277Z,41.40
2018-12-13T02:33:57.192Z,37.30
2018-12-13T02:34:57.102Z,44.00
2018-12-13T02:35:57.016Z,40.90
2018-12-13T02:36:56.928Z,38.50
2018-12-13T02:37:56.853Z,41.10
2018-12-13T02:38:56.766Z,41.10
2018-12-13T02:39:56.680Z,40.50
2018-12-13T02:40:56.602Z,39.80
2018-12-13T02:41:56.505Z,40.20
2018-12-13T02:42:56.431Z,40.80
2018-12-13T02:43:56.330Z,40.90
2018-12-13T02:44:56.266Z,42.30
2018-12-13T02:45:56.168Z,39.70
2018-12-13T02:46:56.080Z,42.40
2018-12-13T02:47:55.992Z,39.80
2018-12-13T02:48:55.905Z,41.00
2018-12-13T02:49:55.817Z,38.60
2018-12-13T02:50:55.732Z,43.80
2018-12-13T02:51:55.656Z,44.50
2018-12-13T02:52:55.569Z,42.90
2018-12-13T02:53:55.479Z,40.80
2018-12-13T02:54:55.393Z,43.00
2018-12-13T02:55:55.305Z,42.50
2018-12-13T02:56:55.218Z,41.50
2018-12-13T02:57:55.143Z,43.80
2018-12-13T02:58:55.054Z,43.00
2018-12-13T02:59:54.970Z,47.20
2018-12-13T03:00:54.880Z,48.10
2018-12-13T03:01:54.795Z,47.30
2018-12-13T03:02:54.722Z,51.20
2018-12-13T03:03:54.619Z,47.90
2018-12-13T03:04:54.546Z,46.40
2018-12-13T03:05:54.464Z,45.80
2018-12-13T03:06:54.370Z,49.70
2018-12-13T03:07:54.282Z,46.50
2018-12-13T03:08:54.194Z,49.60
2018-12-13T03:09:54.108Z,47.60
2018-12-13T03:10:54.019Z,50.30
2018-12-13T03:11:53.945Z,49.20
2018-12-13T03:12:53.858Z,48.90
2018-12-13T03:13:53.769Z,44.30
2018-12-13T03:14:53.682Z,44.00
2018-12-13T03:15:53.595Z,44.20
2018-12-13T03:16:53.520Z,44.80
2018-12-13T03:17:53.421Z,48.20
2018-12-13T03:18:53.336Z,44.60
2018-12-13T03:19:53.258Z,46.80
2018-12-13T03:20:53.171Z,42.80
2018-12-13T03:21:53.083Z,46.40
2018-12-13T03:22:52.997Z,41.30
2018-12-13T03:23:52.925Z,43.90
2018-12-13T03:24:52.822Z,43.90
2018-12-13T03:25:52.734Z,41.70
2018-12-13T03:26:52.661Z,42.00
2018-12-13T03:27:52.572Z,39.00
2018-12-13T03:28:52.485Z,41.30
2018-12-13T03:29:52.398Z,36.60
2018-12-13T03:30:52.323Z,34.70
2018-12-13T03:31:52.223Z,37.40
2018-12-13T03:32:52.136Z,34.10
2018-12-13T03:33:52.064Z,38.50
2018-12-13T03:34:51.974Z,36.30
2018-12-13T03:35:51.886Z,36.50
2018-12-13T03:36:51.798Z,41.70
2018-12-13T03:37:51.711Z,40.10
2018-12-13T03:38:51.623Z,41.20
2018-12-13T03:39:51.535Z,43.70
2018-12-13T03:40:51.448Z,44.90
2018-12-13T03:41:51.374Z,40.10
2018-12-13T03:42:51.285Z,43.50
2018-12-13T03:43:51.202Z,40.80
2018-12-13T03:44:51.113Z,39.90
2018-12-13T03:45:51.025Z,43.60
2018-12-13T03:46:50.935Z,41.70
2018-12-13T03:47:50.850Z,41.90
2018-12-13T03:48:50.787Z,42.40
2018-12-13T03:49:50.686Z,41.90
2018-12-13T03:50:50.600Z,43.50
2018-12-13T03:51:50.510Z,43.00
2018-12-13T03:52:50.433Z,39.80
2018-12-13T03:53:50.338Z,44.20
2018-12-13T03:54:50.253Z,40.80
2018-12-13T03:55:50.162Z,40.70
2018-12-13T03:56:50.087Z,42.90
2018-12-13T03:57:50.000Z,37.30
2018-12-13T03:58:49.912Z,43.00
2018-12-13T03:59:49.825Z,42.00
2018-12-13T04:00:49.746Z,40.30
2018-12-13T04:01:49.650Z,40.70
2018-12-13T04:02:49.565Z,38.90
2018-12-13T04:03:49.487Z,37.80
2018-12-13T04:04:49.401Z,39.70
2018-12-13T04:05:49.326Z,41.70
2018-12-13T04:06:49.225Z,37.70
2018-12-13T04:07:49.138Z,37.90
2018-12-13T04:08:49.052Z,39.10
2018-12-13T04:09:48.963Z,37.20
2018-12-13T04:10:48.878Z,38.40
2018-12-13T04:11:48.802Z,36.80
2018-12-13T04:12:48.715Z,37.90
2018-12-13T04:13:48.629Z,34.70
2018-12-13T04:14:48.538Z,37.20
2018-12-13T04:15:48.453Z,40.10
2018-12-13T04:16:48.363Z,34.50
2018-12-13T04:17:48.289Z,34.90
2018-12-13T04:18:48.192Z,36.50
2018-12-13T04:19:48.128Z,35.50
2018-12-13T04:20:48.027Z,35.00
2018-12-13T04:21:47.942Z,33.60
2018-12-13T04:22:47.852Z,33.20
2018-12-13T04:23:47.765Z,32.70
2018-12-13T04:24:47.691Z,30.30
2018-12-13T04:25:47.591Z,32.60
2018-12-13T04:26:47.532Z,29.70
2018-12-13T04:27:47.430Z,31.90
2018-12-13T04:28:47.339Z,32.60
2018-12-13T04:29:47.254Z,28.90
2018-12-13T04:30:47.178Z,31.30
2018-12-13T04:31:47.083Z,31.20
2018-12-13T04:32:46.990Z,31.90
2018-12-13T04:33:46.903Z,29.60
2018-12-13T04:34:46.832Z,28.90
2018-12-13T04:35:46.743Z,30.60
2018-12-13T04:36:46.654Z,29.40
2018-12-13T04:37:46.565Z,30.60
2018-12-13T04:38:46.479Z,31.60
2018-12-13T04:39:46.392Z,28.00
2018-12-13T04:40:46.304Z,29.60
2018-12-13T04:41:46.217Z,28.20
2018-12-13T04:42:46.141Z,28.40
2018-12-13T04:43:46.055Z,27.20
2018-12-13T04:44:45.966Z,31.30
2018-12-13T04:45:45.879Z,29.90
2018-12-13T04:46:45.791Z,28.90
2018-12-13T04:47:45.709Z,26.50
2018-12-13T04:48:45.618Z,30.50
2018-12-13T04:49:45.531Z,26.40
2018-12-13T04:50:45.455Z,29.00
2018-12-13T04:51:45.367Z,25.50
2018-12-13T04:52:45.281Z,26.90
2018-12-13T04:53:45.193Z,27.50
2018-12-13T04:54:45.106Z,24.90
2018-12-13T04:55:45.017Z,29.30
2018-12-13T04:56:44.931Z,25.70
2018-12-13T04:57:44.845Z,23.90
2018-12-13T04:58:44.796Z,26.10
2018-12-13T04:59:44.682Z,26.90
2018-12-13T05:00:44.593Z,26.70
2018-12-13T05:01:44.505Z,25.20
2018-12-13T05:02:44.419Z,25.50
2018-12-13T05:03:44.333Z,26.80
2018-12-13T05:04:44.244Z,25.70
2018-12-13T05:05:44.157Z,25.10
2018-12-13T05:06:44.081Z,24.90
2018-12-13T05:07:43.995Z,24.80
2018-12-13T05:08:43.906Z,26.50
2018-12-13T05:09:43.820Z,25.70
2018-12-13T05:10:43.736Z,27.30
2018-12-13T05:11:43.644Z,29.00
2018-12-13T05:12:43.559Z,27.90
2018-12-13T05:13:43.469Z,27.20
2018-12-13T05:14:43.383Z,28.90
2018-12-13T05:15:43.308Z,29.50
2018-12-13T05:16:43.220Z,28.90
2018-12-13T05:17:43.136Z,30.30
2018-12-13T05:18:43.045Z,28.40
2018-12-13T05:19:42.958Z,28.40
2018-12-13T05:20:42.871Z,29.90
2018-12-13T05:21:42.787Z,28.60
2018-12-13T05:22:42.709Z,30.50
2018-12-13T05:23:42.621Z,32.40
2018-12-13T05:24:42.535Z,32.50
2018-12-13T05:25:42.446Z,33.20
2018-12-13T05:26:42.362Z,32.10
2018-12-13T05:27:42.271Z,33.70
2018-12-13T05:28:42.184Z,33.60
2018-12-13T05:29:42.097Z,34.00
2018-12-13T05:30:42.009Z,31.90
2018-12-13T05:31:41.934Z,35.60
2018-12-13T05:32:41.851Z,32.70
2018-12-13T05:33:41.760Z,32.90
2018-12-13T05:34:41.674Z,32.80
2018-12-13T05:35:41.586Z,33.00
2018-12-13T05:36:41.497Z,31.60
2018-12-13T05:37:41.410Z,31.60
2018-12-13T05:38:41.335Z,34.00
2018-12-13T05:39:41.236Z,34.80
2018-12-13T05:40:41.149Z,34.90
2018-12-13T05:41:41.073Z,31.80
2018-12-13T05:42:40.986Z,30.10
2018-12-13T05:43:40.907Z,30.40
2018-12-13T05:44:40.812Z,32.60
2018-12-13T05:45:40.723Z,30.00
2018-12-13T05:46:40.636Z,29.80
2018-12-13T05:47:40.550Z,30.00
2018-12-13T05:48:40.462Z,27.60
2018-12-13T05:49:40.375Z,27.20
2018-12-13T05:50:40.299Z,29.40
2018-12-13T05:51:40.217Z,29.80
2018-12-13T05:52:40.125Z,26.20
2018-12-13T05:53:40.037Z,26.30
2018-12-13T05:54:39.949Z,26.40
2018-12-13T05:55:39.863Z,26.60
2018-12-13T05:56:39.789Z,28.50
2018-12-13T05:57:39.688Z,27.30
2018-12-13T05:58:39.603Z,28.60
2018-12-13T05:59:39.526Z,29.20
2018-12-13T06:00:39.438Z,29.30
2018-12-13T06:01:39.350Z,27.40
2018-12-13T06:02:39.266Z,27.80
2018-12-13T06:03:39.175Z,26.90
2018-12-13T06:04:39.088Z,26.50
2018-12-13T06:05:39.000Z,27.70
2018-12-13T06:06:38.915Z,27.40
2018-12-13T06:07:38.826Z,28.10
2018-12-13T06:08:38.750Z,26.00
2018-12-13T06:09:38.664Z,27.80
2018-12-13T06:10:38.576Z,28.10
2018-12-13T06:11:38.489Z,28.80
2018-12-13T06:12:38.414Z,27.20
2018-12-13T06:13:38.314Z,28.20
2018-12-13T06:14:38.227Z,26.20
2018-12-13T06:15:38.143Z,27.90
2018-12-13T06:16:38.051Z,28.50
2018-12-13T06:17:37.982Z,27.50
2018-12-13T06:18:37.890Z,26.50
2018-12-13T06:19:37.815Z,28.30
2018-12-13T06:20:37.716Z,24.60
2018-12-13T06:21:37.628Z,25.80
2018-12-13T06:22:37.548Z,27.50
2018-12-13T06:23:37.453Z,26.80
2018-12-13T06:24:37.366Z,27.20
2018-12-13T06:25:37.279Z,26.50
2018-12-13T06:26:37.191Z,26.00
2018-12-13T06:27:37.119Z,27.40
2018-12-13T06:28:37.028Z,27.90
2018-12-13T06:29:41.853Z,23.90
2018-12-13T06:30:36.853Z,27.70
2018-12-13T06:31:36.767Z,24.00
2018-12-13T06:32:36.679Z,24.60
2018-12-13T06:33:36.593Z,26.60
2018-12-13T06:34:36.504Z,27.10
2018-12-13T06:35:36.417Z,28.10
2018-12-13T06:36:36.331Z,27.30
2018-12-13T06:37:36.254Z,27.00
2018-12-13T06:38:36.168Z,29.70
2018-12-13T06:39:36.080Z,30.60
2018-12-13T06:40:35.993Z,27.70
2018-12-13T06:41:35.917Z,28.10
2018-12-13T06:42:35.820Z,26.70
2018-12-13T06:43:35.731Z,27.80
2018-12-13T06:44:35.644Z,26.50
2018-12-13T06:45:35.559Z,31.60
2018-12-13T06:46:35.513Z,28.80
2018-12-13T06:47:35.394Z,29.00
2018-12-13T06:48:35.307Z,27.20
2018-12-13T06:49:35.220Z,29.10
2018-12-13T06:50:35.131Z,30.10
2018-12-13T06:51:35.045Z,28.20
2018-12-13T06:52:34.970Z,29.10
2018-12-13T06:53:34.870Z,29.80
2018-12-13T06:54:34.785Z,27.00
2018-12-13T06:55:34.706Z,28.90
2018-12-13T06:56:34.620Z,29.60
2018-12-13T06:57:34.532Z,28.40
2018-12-13T06:58:34.445Z,28.90
2018-12-13T06:59:34.371Z,28.80
2018-12-13T07:00:34.271Z,29.30
2018-12-13T07:01:34.183Z,28.20
2018-12-13T07:02:34.095Z,30.90
2018-12-13T07:03:34.009Z,29.20
2018-12-13T07:04:33.933Z,27.80
2018-12-13T07:05:33.847Z,29.30
2018-12-13T07:06:33.758Z,30.40
2018-12-13T07:07:33.671Z,29.70
2018-12-13T07:08:33.596Z,31.10
2018-12-13T07:09:33.496Z,32.10
2018-12-13T07:10:33.408Z,32.80
2018-12-13T07:11:33.324Z,31.80
2018-12-13T07:12:33.237Z,30.30
2018-12-13T07:13:33.158Z,28.90
2018-12-13T07:14:33.072Z,31.00
2018-12-13T07:15:32.984Z,30.80
2018-12-13T07:16:32.897Z,32.30
2018-12-13T07:17:32.810Z,33.10
2018-12-13T07:18:32.722Z,27.50
2018-12-13T07:19:32.635Z,34.50
2018-12-13T07:20:32.548Z,29.70
2018-12-13T07:21:32.466Z,31.20
2018-12-13T07:22:32.385Z,32.10
2018-12-13T07:23:32.298Z,35.70
2018-12-13T07:24:32.211Z,33.40
2018-12-13T07:25:32.124Z,31.90
2018-12-13T07:26:32.048Z,30.40
2018-12-13T07:27:31.948Z,32.30
2018-12-13T07:28:31.861Z,32.30
2018-12-13T07:29:31.779Z,38.90
2018-12-13T07:30:31.702Z,35.70
2018-12-13T07:31:31.611Z,35.80
2018-12-13T07:32:31.523Z,37.50
2018-12-13T07:33:31.435Z,36.70
2018-12-13T07:34:31.350Z,39.70
2018-12-13T07:35:31.261Z,40.80
2018-12-13T07:36:31.174Z,39.10
2018-12-13T07:37:31.086Z,39.80
2018-12-13T07:38:31.011Z,41.50
2018-12-13T07:39:30.925Z,38.20
2018-12-13T07:40:30.838Z,38.70
2018-12-13T07:41:30.751Z,40.10
2018-12-13T07:42:30.661Z,40.50
2018-12-13T07:43:30.575Z,40.70
2018-12-13T07:44:30.487Z,39.30
2018-12-13T07:45:30.401Z,36.20
2018-12-13T07:46:30.314Z,38.50
2018-12-13T07:47:30.237Z,39.50
2018-12-13T07:48:30.151Z,37.60
2018-12-13T07:49:30.062Z,39.10
2018-12-13T07:50:29.976Z,37.50
2018-12-13T07:51:29.888Z,36.70
2018-12-13T07:52:29.802Z,37.10
2018-12-13T07:53:29.713Z,37.70
2018-12-13T07:54:29.638Z,35.50
2018-12-13T07:55:29.552Z,36.30
2018-12-13T07:56:29.464Z,36.60
2018-12-13T07:57:29.379Z,41.20
2018-12-13T07:58:29.289Z,35.20
2018-12-13T07:59:29.202Z,37.00
2018-12-13T08:00:29.114Z,38.30
2018-12-13T08:01:29.028Z,37.70
2018-12-13T08:02:28.941Z,35.20
2018-12-13T08:03:28.864Z,35.50
2018-12-13T08:04:28.781Z,38.50
2018-12-13T08:05:28.690Z,37.00
2018-12-13T08:06:28.602Z,35.90
2018-12-13T08:07:28.515Z,34.90
2018-12-13T08:08:28.428Z,34.90
2018-12-13T08:09:28.340Z,34.20
2018-12-13T08:10:28.253Z,37.10
2018-12-13T08:11:28.183Z,35.10
2018-12-13T08:12:28.090Z,34.30
2018-12-13T08:13:28.004Z,34.60
2018-12-13T08:14:27.915Z,34.60
2018-12-13T08:15:27.840Z,36.80
2018-12-13T08:16:27.741Z,35.10
2018-12-13T08:17:27.655Z,38.30
2018-12-13T08:18:27.565Z,36.70
2018-12-13T08:19:27.480Z,33.90
2018-12-13T08:20:27.414Z,36.30
2018-12-13T08:21:27.304Z,32.40
2018-12-13T08:22:27.229Z,34.90
2018-12-13T08:23:27.142Z,31.70
2018-12-13T08:24:27.056Z,34.40
2018-12-13T08:25:26.967Z,32.70
2018-12-13T08:26:26.882Z,32.30
2018-12-13T08:27:26.792Z,34.20
2018-12-13T08:28:26.706Z,34.60
2018-12-13T08:29:26.621Z,32.10
2018-12-13T08:30:26.534Z,30.20
2018-12-13T08:31:26.444Z,33.60
2018-12-13T08:32:26.369Z,32.20
2018-12-13T08:33:26.317Z,31.20
2018-12-13T08:34:26.193Z,30.20
2018-12-13T08:35:26.107Z,30.30
2018-12-13T08:36:26.019Z,29.20
2018-12-13T08:37:25.932Z,29.30
2018-12-13T08:38:27.358Z,33.70
2018-12-13T08:39:25.756Z,29.10
2018-12-13T08:40:25.668Z,31.60
2018-12-13T08:41:25.582Z,29.40
2018-12-13T08:42:25.507Z,29.90
2018-12-13T08:43:25.418Z,31.40
2018-12-13T08:44:25.331Z,28.70
2018-12-13T08:45:25.245Z,30.70
2018-12-13T08:46:25.159Z,32.30
2018-12-13T08:47:25.070Z,30.30
2018-12-13T08:48:24.983Z,30.80
2018-12-13T08:49:24.894Z,31.80
2018-12-13T08:50:24.808Z,32.50
2018-12-13T08:51:24.722Z,29.90
2018-12-13T08:52:24.645Z,32.50
2018-12-13T08:53:24.559Z,29.30
2018-12-13T08:54:24.470Z,30.70
2018-12-13T08:55:24.383Z,31.50
2018-12-13T08:56:24.296Z,31.70
2018-12-13T08:57:24.209Z,33.20
2018-12-13T08:58:24.122Z,30.20
2018-12-13T08:59:24.036Z,31.80
2018-12-13T09:00:23.946Z,29.00
2018-12-13T09:01:23.871Z,28.60
2018-12-13T09:02:23.784Z,31.10
2018-12-13T09:03:23.699Z,32.00
2018-12-13T09:04:23.612Z,31.40
2018-12-13T09:05:23.535Z,30.50
2018-12-13T09:06:23.436Z,29.30
2018-12-13T09:07:23.347Z,28.10
2018-12-13T09:08:23.265Z,29.30
2018-12-13T09:09:23.174Z,28.00
2018-12-13T09:10:23.097Z,28.40
2018-12-13T09:11:23.011Z,28.70
2018-12-13T09:12:22.936Z,29.60
2018-12-13T09:13:22.836Z,31.90
2018-12-13T09:14:22.748Z,28.50
2018-12-13T09:15:22.665Z,28.50
2018-12-13T09:16:22.574Z,28.90
2018-12-13T09:17:22.498Z,27.50
2018-12-13T09:18:22.415Z,26.20
2018-12-13T09:19:22.336Z,29.20
2018-12-13T09:20:22.238Z,27.90
2018-12-13T09:21:22.149Z,28.80
2018-12-13T09:22:22.066Z,26.50
2018-12-13T09:23:21.988Z,27.00
2018-12-13T09:24:21.889Z,29.00
2018-12-13T09:25:21.814Z,28.00
2018-12-13T09:26:21.737Z,24.60
2018-12-13T09:27:21.637Z,25.10
2018-12-13T09:28:21.550Z,27.70
2018-12-13T09:29:21.472Z,25.30
2018-12-13T09:30:21.387Z,26.20
2018-12-13T09:31:21.300Z,27.70
2018-12-13T09:32:21.214Z,25.40
2018-12-13T09:33:21.127Z,26.80
2018-12-13T09:34:21.038Z,27.40
2018-12-13T09:35:20.950Z,29.30
2018-12-13T09:36:20.863Z,25.70
2018-12-13T09:37:20.777Z,26.60
2018-12-13T09:38:20.701Z,27.10
2018-12-13T09:39:20.616Z,27.50
2018-12-13T09:40:20.526Z,24.60
2018-12-13T09:41:20.439Z,22.50
2018-12-13T09:42:20.364Z,24.70
2018-12-13T09:43:20.264Z,22.00
2018-12-13T09:44:20.178Z,24.80
2018-12-13T09:45:20.101Z,22.50
2018-12-13T09:46:20.015Z,23.10
2018-12-13T09:47:19.928Z,24.80
2018-12-13T09:48:19.840Z,25.40
2018-12-13T09:49:19.764Z,22.70
2018-12-13T09:50:19.677Z,24.60
2018-12-13T09:51:19.591Z,22.20
2018-12-13T09:52:19.503Z,24.00
2018-12-13T09:53:19.415Z,25.80
2018-12-13T09:54:19.328Z,25.30
2018-12-13T09:55:19.250Z,26.20
2018-12-13T09:56:19.154Z,25.00
2018-12-13T09:57:19.077Z,24.30
2018-12-13T09:58:18.992Z,24.10
2018-12-13T09:59:18.916Z,24.00
2018-12-13T10:00:18.819Z,24.70
2018-12-13T10:01:18.729Z,29.70
2018-12-13T10:02:18.641Z,24.90
2018-12-13T10:03:18.566Z,27.00
2018-12-13T10:04:18.485Z,25.40
2018-12-13T10:05:19.309Z,25.70
2018-12-13T10:06:18.304Z,23.80
2018-12-13T10:07:18.217Z,23.90
2018-12-13T10:08:18.128Z,25.50
2018-12-13T10:09:18.054Z,25.80
2018-12-13T10:10:17.967Z,22.10
2018-12-13T10:11:17.880Z,26.50
2018-12-13T10:12:17.796Z,24.10
2018-12-13T10:13:17.707Z,25.50
2018-12-13T10:14:17.617Z,25.50
2018-12-13T10:15:17.542Z,27.50
2018-12-13T10:16:17.456Z,26.90
2018-12-13T10:17:17.368Z,26.80
2018-12-13T10:18:17.282Z,27.60
2018-12-13T10:19:17.193Z,26.70
2018-12-13T10:20:17.106Z,27.10
2018-12-13T10:21:17.018Z,28.30
2018-12-13T10:22:16.948Z,27.10
2018-12-13T10:23:16.857Z,27.50
2018-12-13T10:24:16.768Z,25.40
2018-12-13T10:25:16.680Z,26.40
2018-12-13T10:26:16.595Z,28.00
2018-12-13T10:27:16.506Z,28.10
2018-12-13T10:28:16.420Z,26.80
2018-12-13T10:29:16.338Z,25.70
2018-12-13T10:30:16.269Z,23.90
2018-12-13T10:31:16.170Z,28.00
2018-12-13T10:32:16.086Z,26.40
2018-12-13T10:33:15.995Z,26.60
2018-12-13T10:34:15.906Z,26.60
2018-12-13T10:35:15.821Z,25.90
2018-12-13T10:36:15.732Z,27.10
2018-12-13T10:37:15.657Z,28.50
2018-12-13T10:38:15.569Z,26.20
2018-12-13T10:39:15.482Z,26.80
2018-12-13T10:40:15.398Z,27.30
2018-12-13T10:41:15.307Z,27.60
2018-12-13T10:42:15.223Z,25.80
2018-12-13T10:43:15.134Z,28.40
2018-12-13T10:44:15.057Z,25.80
2018-12-13T10:45:14.971Z,25.60
2018-12-13T10:46:14.882Z,27.00
2018-12-13T10:47:14.796Z,24.50
2018-12-13T10:48:14.710Z,26.80
2018-12-13T10:49:14.621Z,25.70
2018-12-13T10:50:14.533Z,24.10
2018-12-13T10:51:14.458Z,26.30
2018-12-13T10:52:14.371Z,27.30
2018-12-13T10:53:14.286Z,25.20
2018-12-13T10:54:14.198Z,26.80
2018-12-13T10:55:14.111Z,24.40
2018-12-13T10:56:14.022Z,24.00
2018-12-13T10:57:13.933Z,20.50
2018-12-13T10:58:13.859Z,20.00
2018-12-13T10:59:13.773Z,18.30
2018-12-13T11:00:14.354Z,20.00
2018-12-13T11:01:13.597Z,18.80
2018-12-13T11:02:13.511Z,18.30
2018-12-13T11:03:13.423Z,19.70
2018-12-13T11:04:13.333Z,18.80
2018-12-13T11:05:13.260Z,20.00
2018-12-13T11:06:13.174Z,20.70
2018-12-13T11:07:13.084Z,19.30
2018-12-13T11:08:12.997Z,20.70
2018-12-13T11:09:12.922Z,20.40
2018-12-13T11:10:12.823Z,20.70
2018-12-13T11:11:12.734Z,21.40
2018-12-13T11:12:12.660Z,21.80
2018-12-13T11:13:12.573Z,20.00
2018-12-13T11:14:12.485Z,19.20
2018-12-13T11:15:12.398Z,20.50
2018-12-13T11:16:12.325Z,22.10
2018-12-13T11:17:12.223Z,22.90
2018-12-13T11:18:12.138Z,21.60
2018-12-13T11:19:12.061Z,21.10
2018-12-13T11:20:11.974Z,21.50
2018-12-13T11:21:17.304Z,20.50
2018-12-13T11:22:11.799Z,20.60
2018-12-13T11:23:11.724Z,22.10
2018-12-13T11:24:11.623Z,21.90
2018-12-13T11:25:11.537Z,22.80
2018-12-13T11:26:11.462Z,22.00
2018-12-13T11:27:11.374Z,21.30
2018-12-13T11:28:11.286Z,22.30
2018-12-13T11:29:11.199Z,21.40
2018-12-13T11:30:11.111Z,20.90
2018-12-13T11:31:11.025Z,20.90
2018-12-13T11:32:10.953Z,20.50
2018-12-13T11:33:10.869Z,21.40
2018-12-13T11:34:10.775Z,21.90
2018-12-13T11:35:10.687Z,22.10
2018-12-13T11:36:10.614Z,20.70
2018-12-13T11:37:10.512Z,19.80
2018-12-13T11:38:10.438Z,20.90
2018-12-13T11:39:10.357Z,20.40
2018-12-13T11:40:10.263Z,20.90
2018-12-13T11:41:10.175Z,21.10
2018-12-13T11:42:10.088Z,22.90
2018-12-13T11:43:10.004Z,21.70
2018-12-13T11:44:09.913Z,20.80
2018-12-13T11:45:09.839Z,19.70
2018-12-13T11:46:09.752Z,19.10
2018-12-13T11:47:09.664Z,21.20
2018-12-13T11:48:09.577Z,19.80
2018-12-13T11:49:12.155Z,20.60
2018-12-13T11:50:09.401Z,20.70
2018-12-13T11:51:09.315Z,22.10
2018-12-13T11:52:09.240Z,20.60
2018-12-13T11:53:09.158Z,21.90
2018-12-13T11:54:09.064Z,19.50
2018-12-13T11:55:08.978Z,19.40
2018-12-13T11:56:08.890Z,22.10
2018-12-13T11:57:08.804Z,22.10
2018-12-13T11:58:08.716Z,19.00
2018-12-13T11:59:08.639Z,20.60
2018-12-13T12:00:08.553Z,20.90
2018-12-13T12:01:08.503Z,20.20
2018-12-13T12:02:08.378Z,19.70
2018-12-13T12:03:08.290Z,19.30
2018-12-13T12:04:08.237Z,20.60
2018-12-13T12:05:08.129Z,19.50
2018-12-13T12:06:08.041Z,20.80
2018-12-13T12:07:07.953Z,20.30
2018-12-13T12:08:07.866Z,20.40
2018-12-13T12:09:12.247Z,20.10
2018-12-13T12:10:07.699Z,21.10
2018-12-13T12:11:07.605Z,19.00
2018-12-13T12:12:07.530Z,19.90
2018-12-13T12:13:07.429Z,19.40
2018-12-13T12:14:07.355Z,19.10
2018-12-13T12:15:07.267Z,18.30
2018-12-13T12:16:07.180Z,18.80
2018-12-13T12:17:07.092Z,19.20
2018-12-13T12:18:07.006Z,17.70
2018-12-13T12:19:06.930Z,15.70
2018-12-13T12:20:06.830Z,17.40
2018-12-13T12:21:06.743Z,17.70
2018-12-13T12:22:06.668Z,17.10
2018-12-13T12:23:06.583Z,15.40
2018-12-13T12:24:06.493Z,16.30
2018-12-13T12:25:06.409Z,16.40
2018-12-13T12:26:06.318Z,16.00
2018-12-13T12:27:06.233Z,16.30
2018-12-13T12:28:06.143Z,15.20
2018-12-13T12:29:06.057Z,17.40
2018-12-13T12:30:05.984Z,17.30
2018-12-13T12:31:05.894Z,18.80
2018-12-13T12:32:05.813Z,18.60
2018-12-13T12:33:05.721Z,19.60
2018-12-13T12:34:05.632Z,17.90
2018-12-13T12:35:05.546Z,19.00
2018-12-13T12:36:05.458Z,17.40
2018-12-13T12:37:05.371Z,18.50
2018-12-13T12:38:05.296Z,18.20
2018-12-13T12:39:05.209Z,19.00
2018-12-13T12:40:05.122Z,16.80
2018-12-13T12:41:05.033Z,17.10
2018-12-13T12:42:04.945Z,16.30
2018-12-13T12:43:04.861Z,18.00
2018-12-13T12:44:04.774Z,15.50
2018-12-13T12:45:04.695Z,16.90
2018-12-13T12:46:04.609Z,17.60
2018-12-13T12:47:04.521Z,18.90
2018-12-13T12:48:04.435Z,19.80
2018-12-13T12:49:04.346Z,19.10
2018-12-13T12:50:04.259Z,18.10
2018-12-13T12:51:04.202Z,20.50